createdAt,value
2022-10-31T00:00:35.113Z,98
2022-10-31T00:01:35.130Z,98
2022-10-31T00:02:35.097Z,98
2022-10-31T00:03:35.053Z,98
2022-10-31T00:04:35.065Z,98
2022-10-31T00:05:35.068Z,98
2022-10-31T00:06:35.040Z,98
2022-10-31T00:07:35.067Z,98
2022-10-31T00:08:35.094Z,98
2022-10-31T00:09:35.057Z,98
2022-10-31T00:10:35.067Z,98
2022-10-31T00:11:35.071Z,98
2022-10-31T00:12:35.053Z,98
2022-10-31T00:13:35.083Z,98
2022-10-31T00:14:35.068Z,98
2022-10-31T00:15:35.070Z,98
2022-10-31T00:16:35.063Z,98
2022-10-31T00:17:35.105Z,98
2022-10-31T00:18:35.096Z,98
2022-10-31T00:19:35.107Z,98
2022-10-31T00:20:35.119Z,98
2022-10-31T00:21:35.093Z,98
2022-10-31T00:22:35.121Z,98
2022-10-31T00:23:35.149Z,98
2022-10-31T00:24:35.099Z,98
2022-10-31T00:25:35.129Z,98
2022-10-31T00:26:35.104Z,98
2022-10-31T00:27:35.100Z,98
2022-10-31T00:28:35.110Z,98
2022-10-31T00:29:35.111Z,98
2022-10-31T00:30:35.115Z,98
2022-10-31T00:31:35.113Z,98
2022-10-31T00:32:35.110Z,98
2022-10-31T00:33:35.116Z,98
2022-10-31T00:34:35.109Z,98
2022-10-31T00:35:35.119Z,99
2022-10-31T00:36:35.143Z,99
2022-10-31T00:37:35.159Z,99
2022-10-31T00:38:35.290Z,98
2022-10-31T00:39:35.295Z,98
2022-10-31T00:40:35.145Z,98
2022-10-31T00:41:35.357Z,98
2022-10-31T00:42:35.135Z,98
2022-10-31T00:43:35.165Z,98
2022-10-31T00:44:35.141Z,99
2022-10-31T00:45:35.148Z,99
2022-10-31T00:46:35.145Z,99
2022-10-31T00:47:35.156Z,99
2022-10-31T00:48:35.152Z,99
2022-10-31T00:49:35.139Z,99
2022-10-31T00:50:35.153Z,98
2022-10-31T00:51:35.146Z,98
2022-10-31T00:52:35.161Z,98
2022-10-31T00:53:35.174Z,98
2022-10-31T00:54:35.182Z,99
2022-10-31T00:55:35.175Z,99
2022-10-31T00:56:35.167Z,99
2022-10-31T00:57:35.167Z,98
2022-10-31T00:58:35.194Z,98
2022-10-31T00:59:35.176Z,98
2022-10-31T01:00:35.175Z,98
2022-10-31T01:01:35.252Z,98
2022-10-31T01:02:35.348Z,98
2022-10-31T01:03:35.187Z,98
2022-10-31T01:04:35.178Z,98
2022-10-31T01:05:35.206Z,98
2022-10-31T01:06:35.184Z,98
2022-10-31T01:07:35.181Z,98
2022-10-31T01:08:35.228Z,98
2022-10-31T01:09:35.188Z,98
2022-10-31T01:10:35.187Z,98
2022-10-31T01:11:35.215Z,98
2022-10-31T01:12:35.185Z,98
2022-10-31T01:13:35.193Z,98
2022-10-31T01:14:35.210Z,98
2022-10-31T01:15:35.210Z,98
2022-10-31T01:16:35.198Z,98
2022-10-31T01:17:35.233Z,98
2022-10-31T01:18:35.229Z,98
2022-10-31T01:19:35.228Z,98
2022-10-31T01:20:35.223Z,99
2022-10-31T01:21:35.205Z,99
2022-10-31T01:22:35.216Z,99
2022-10-31T01:23:35.249Z,99
2022-10-31T01:24:35.257Z,99
2022-10-31T01:25:35.210Z,99
2022-10-31T01:26:35.226Z,99
2022-10-31T01:27:35.337Z,99
2022-10-31T01:28:35.244Z,99
2022-10-31T01:29:35.234Z,99
2022-10-31T01:30:35.259Z,99
2022-10-31T01:31:35.250Z,99
2022-10-31T01:32:35.239Z,99
2022-10-31T01:33:35.274Z,99
2022-10-31T01:34:35.244Z,99
2022-10-31T01:35:35.245Z,99
2022-10-31T01:36:35.256Z,99
2022-10-31T01:37:35.259Z,99
2022-10-31T01:38:35.437Z,99
2022-10-31T01:39:35.245Z,99
2022-10-31T01:40:35.276Z,99
2022-10-31T01:41:35.244Z,99
2022-10-31T01:42:35.257Z,99
2022-10-31T01:43:35.269Z,98
2022-10-31T01:44:35.288Z,98
2022-10-31T01:45:35.261Z,98
2022-10-31T01:46:35.263Z,98
2022-10-31T01:47:35.257Z,98
2022-10-31T01:48:35.280Z,98
2022-10-31T01:49:35.288Z,98
2022-10-31T01:50:35.257Z,98
2022-10-31T01:51:35.264Z,98
2022-10-31T01:52:35.262Z,98
2022-10-31T01:53:35.316Z,98
2022-10-31T01:54:35.282Z,98
2022-10-31T01:55:35.283Z,98
2022-10-31T01:56:35.300Z,98
2022-10-31T01:57:35.281Z,98
2022-10-31T01:58:35.613Z,98
2022-10-31T01:59:35.303Z,98
2022-10-31T02:00:35.329Z,99
2022-10-31T02:01:35.432Z,99
2022-10-31T02:02:35.477Z,99
2022-10-31T02:03:35.328Z,99
2022-10-31T02:04:35.306Z,99
2022-10-31T02:05:35.334Z,99
2022-10-31T02:06:35.319Z,99
2022-10-31T02:07:35.320Z,99
2022-10-31T02:08:35.328Z,99
2022-10-31T02:09:35.321Z,99
2022-10-31T02:10:35.322Z,99
2022-10-31T02:11:35.348Z,99
2022-10-31T02:12:35.355Z,99
2022-10-31T02:13:35.343Z,99
2022-10-31T02:14:35.320Z,99
2022-10-31T02:15:35.335Z,99
2022-10-31T02:16:35.315Z,99
2022-10-31T02:17:35.332Z,99
2022-10-31T02:18:35.368Z,99
2022-10-31T02:19:35.351Z,99
2022-10-31T02:20:35.341Z,99
2022-10-31T02:21:35.339Z,99
2022-10-31T02:22:35.367Z,99
2022-10-31T02:23:35.371Z,99
2022-10-31T02:24:35.374Z,99
2022-10-31T02:25:35.358Z,99
2022-10-31T02:26:35.396Z,99
2022-10-31T02:27:35.379Z,99
2022-10-31T02:28:35.401Z,99
2022-10-31T02:29:35.365Z,99
2022-10-31T02:30:35.353Z,99
2022-10-31T02:31:35.388Z,99
2022-10-31T02:32:35.409Z,99
2022-10-31T02:33:35.391Z,99
2022-10-31T02:34:35.395Z,99
2022-10-31T02:35:35.586Z,99
2022-10-31T02:36:35.375Z,99
2022-10-31T02:37:35.375Z,99
2022-10-31T02:38:35.439Z,99
2022-10-31T02:39:35.402Z,99
2022-10-31T02:40:35.410Z,99
2022-10-31T02:41:35.404Z,99
2022-10-31T02:42:35.413Z,99
2022-10-31T02:43:35.412Z,99
2022-10-31T02:44:35.431Z,99
2022-10-31T02:45:35.410Z,99
2022-10-31T02:46:35.435Z,99
2022-10-31T02:47:35.421Z,99
2022-10-31T02:48:35.437Z,99
2022-10-31T02:49:35.436Z,99
2022-10-31T02:50:35.430Z,99
2022-10-31T02:51:35.438Z,99
2022-10-31T02:52:35.457Z,99
2022-10-31T02:53:35.472Z,99
2022-10-31T02:54:35.478Z,99
2022-10-31T02:55:35.441Z,99
2022-10-31T02:56:35.442Z,99
2022-10-31T02:57:35.463Z,99
2022-10-31T02:58:35.479Z,99
2022-10-31T02:59:35.444Z,99
2022-10-31T03:00:35.487Z,99
2022-10-31T03:01:35.520Z,99
2022-10-31T03:02:35.628Z,99
2022-10-31T03:03:35.479Z,99
2022-10-31T03:04:35.497Z,99
2022-10-31T03:05:35.474Z,99
2022-10-31T03:06:35.487Z,99
2022-10-31T03:07:35.492Z,99
2022-10-31T03:08:35.478Z,99
2022-10-31T03:09:35.493Z,99
2022-10-31T03:10:35.500Z,99
2022-10-31T03:11:35.483Z,99
2022-10-31T03:12:35.482Z,99
2022-10-31T03:13:35.496Z,99
2022-10-31T03:14:35.472Z,99
2022-10-31T03:15:35.488Z,99
2022-10-31T03:16:35.602Z,99
2022-10-31T03:17:35.484Z,99
2022-10-31T03:18:35.515Z,99
2022-10-31T03:19:35.493Z,99
2022-10-31T03:20:35.487Z,99
2022-10-31T03:21:35.516Z,99
2022-10-31T03:22:35.495Z,99
2022-10-31T03:23:35.497Z,99
2022-10-31T03:24:35.495Z,99
2022-10-31T03:25:35.498Z,99
2022-10-31T03:26:35.503Z,99
2022-10-31T03:27:35.497Z,99
2022-10-31T03:28:35.518Z,99
2022-10-31T03:29:35.500Z,99
2022-10-31T03:30:35.502Z,99
2022-10-31T03:31:35.530Z,99
2022-10-31T03:32:35.524Z,99
2022-10-31T03:33:35.523Z,99
2022-10-31T03:34:35.514Z,99
2022-10-31T03:35:35.513Z,99
2022-10-31T03:36:35.513Z,99
2022-10-31T03:37:35.518Z,99
2022-10-31T03:38:35.526Z,99
2022-10-31T03:39:35.519Z,99
2022-10-31T03:40:35.524Z,99
2022-10-31T03:41:35.509Z,99
2022-10-31T03:42:35.556Z,99
2022-10-31T03:43:35.558Z,99
2022-10-31T03:44:35.556Z,99
2022-10-31T03:45:35.545Z,99
2022-10-31T03:46:35.541Z,99
2022-10-31T03:47:35.531Z,99
2022-10-31T03:48:35.588Z,99
2022-10-31T03:49:35.536Z,99
2022-10-31T03:50:35.543Z,99
2022-10-31T03:51:35.537Z,99
2022-10-31T03:52:35.551Z,99
2022-10-31T03:53:35.558Z,99
2022-10-31T03:54:35.554Z,99
2022-10-31T03:55:35.543Z,99
2022-10-31T03:56:35.563Z,99
2022-10-31T03:57:35.572Z,99
2022-10-31T03:58:35.568Z,99
2022-10-31T03:59:35.550Z,99
2022-10-31T04:00:35.554Z,99
2022-10-31T04:01:35.696Z,99
2022-10-31T04:02:35.761Z,99
2022-10-31T04:03:35.621Z,99
2022-10-31T04:04:35.617Z,99
2022-10-31T04:05:35.624Z,99
2022-10-31T04:06:35.603Z,99
2022-10-31T04:07:35.599Z,99
2022-10-31T04:08:35.603Z,99
2022-10-31T04:09:35.625Z,99
2022-10-31T04:10:35.640Z,99
2022-10-31T04:11:35.610Z,99
2022-10-31T04:12:35.615Z,99
2022-10-31T04:13:35.620Z,99
2022-10-31T04:14:35.612Z,99
2022-10-31T04:15:35.612Z,99
2022-10-31T04:16:35.637Z,99
2022-10-31T04:17:35.618Z,99
2022-10-31T04:18:35.621Z,99
2022-10-31T04:19:35.621Z,99
2022-10-31T04:20:35.630Z,99
2022-10-31T04:21:35.640Z,99
2022-10-31T04:22:35.600Z,99
2022-10-31T04:23:35.633Z,99
2022-10-31T04:24:35.658Z,99
2022-10-31T04:25:35.635Z,99
2022-10-31T04:26:35.636Z,99
2022-10-31T04:27:35.638Z,99
2022-10-31T04:28:35.653Z,99
2022-10-31T04:29:35.633Z,99
2022-10-31T04:30:35.630Z,99
2022-10-31T04:31:35.776Z,99
2022-10-31T04:32:35.846Z,99
2022-10-31T04:33:35.640Z,99
2022-10-31T04:34:35.642Z,99
2022-10-31T04:35:35.672Z,99
2022-10-31T04:36:35.673Z,99
2022-10-31T04:37:35.671Z,99
2022-10-31T04:38:35.673Z,99
2022-10-31T04:39:35.679Z,99
2022-10-31T04:40:35.671Z,99
2022-10-31T04:41:35.658Z,99
2022-10-31T04:42:35.708Z,99
2022-10-31T04:43:35.739Z,99
2022-10-31T04:44:35.691Z,99
2022-10-31T04:45:35.687Z,99
2022-10-31T04:46:35.677Z,99
2022-10-31T04:47:35.721Z,99
2022-10-31T04:48:35.710Z,99
2022-10-31T04:49:35.717Z,99
2022-10-31T04:50:35.704Z,99
2022-10-31T04:51:35.737Z,99
2022-10-31T04:52:35.749Z,99
2022-10-31T04:53:35.719Z,99
2022-10-31T04:54:35.704Z,99
2022-10-31T04:55:35.707Z,99
2022-10-31T04:56:35.730Z,99
2022-10-31T04:57:35.702Z,99
2022-10-31T04:58:35.725Z,99
2022-10-31T04:59:35.753Z,99
2022-10-31T05:00:35.726Z,99
2022-10-31T05:01:35.850Z,99
2022-10-31T05:02:37.626Z,99
2022-10-31T05:03:35.741Z,99
2022-10-31T05:04:35.736Z,99
2022-10-31T05:05:35.729Z,99
2022-10-31T05:06:35.727Z,99
2022-10-31T05:07:35.733Z,99
2022-10-31T05:08:35.802Z,99
2022-10-31T05:09:35.777Z,99
2022-10-31T05:10:35.762Z,99
2022-10-31T05:11:35.761Z,99
2022-10-31T05:12:35.776Z,99
2022-10-31T05:13:35.787Z,99
2022-10-31T05:14:35.760Z,99
2022-10-31T05:15:35.772Z,99
2022-10-31T05:16:35.768Z,99
2022-10-31T05:17:35.775Z,99
2022-10-31T05:18:35.788Z,99
2022-10-31T05:19:35.792Z,99
2022-10-31T05:20:35.789Z,99
2022-10-31T05:21:35.830Z,99
2022-10-31T05:22:35.809Z,99
2022-10-31T05:23:35.803Z,99
2022-10-31T05:24:35.827Z,99
2022-10-31T05:25:35.811Z,99
2022-10-31T05:26:35.828Z,99
2022-10-31T05:27:35.803Z,99
2022-10-31T05:28:35.825Z,99
2022-10-31T05:29:35.799Z,99
2022-10-31T05:30:35.831Z,99
2022-10-31T05:31:35.813Z,99
2022-10-31T05:32:35.821Z,99
2022-10-31T05:33:35.854Z,99
2022-10-31T05:34:35.825Z,99
2022-10-31T05:35:35.842Z,99
2022-10-31T05:36:35.871Z,99
2022-10-31T05:37:35.843Z,99
2022-10-31T05:38:35.840Z,99
2022-10-31T05:39:35.864Z,99
2022-10-31T05:40:35.845Z,99
2022-10-31T05:41:35.842Z,99
2022-10-31T05:42:35.851Z,99
2022-10-31T05:43:35.858Z,99
2022-10-31T05:44:35.905Z,99
2022-10-31T05:45:35.846Z,99
2022-10-31T05:46:35.898Z,99
2022-10-31T05:47:35.845Z,99
2022-10-31T05:48:35.863Z,99
2022-10-31T05:49:35.842Z,99
2022-10-31T05:50:35.846Z,99
2022-10-31T05:51:35.851Z,99
2022-10-31T05:52:35.886Z,99
2022-10-31T05:53:35.898Z,99
2022-10-31T05:54:35.855Z,99
2022-10-31T05:55:35.883Z,99
2022-10-31T05:56:35.913Z,99
2022-10-31T05:57:35.895Z,99
2022-10-31T05:58:35.870Z,99
2022-10-31T05:59:35.859Z,99
2022-10-31T06:00:35.888Z,99
2022-10-31T06:01:35.932Z,99
2022-10-31T06:02:35.866Z,99
2022-10-31T06:03:35.884Z,99
2022-10-31T06:04:35.968Z,99
2022-10-31T06:05:35.880Z,99
2022-10-31T06:06:35.882Z,99
2022-10-31T06:07:35.904Z,99
2022-10-31T06:08:35.912Z,99
2022-10-31T06:09:35.912Z,99
2022-10-31T06:10:35.918Z,99
2022-10-31T06:11:35.940Z,99
2022-10-31T06:12:35.981Z,99
2022-10-31T06:13:35.948Z,99
2022-10-31T06:14:35.939Z,99
2022-10-31T06:15:35.930Z,99
2022-10-31T06:16:35.937Z,99
2022-10-31T06:17:35.936Z,99
2022-10-31T06:18:35.982Z,99
2022-10-31T06:19:35.955Z,99
2022-10-31T06:20:35.952Z,99
2022-10-31T06:21:35.932Z,99
2022-10-31T06:22:35.935Z,99
2022-10-31T06:23:35.950Z,99
2022-10-31T06:24:35.924Z,99
2022-10-31T06:25:35.960Z,99
2022-10-31T06:26:35.945Z,99
2022-10-31T06:27:35.943Z,99
2022-10-31T06:28:35.983Z,99
2022-10-31T06:29:35.964Z,99
2022-10-31T06:30:35.941Z,99
2022-10-31T06:31:35.950Z,99
2022-10-31T06:32:35.944Z,99
2022-10-31T06:33:36.007Z,99
2022-10-31T06:34:35.979Z,99
2022-10-31T06:35:35.964Z,99
2022-10-31T06:36:36.008Z,99
2022-10-31T06:37:35.984Z,99
2022-10-31T06:38:36.012Z,99
2022-10-31T06:39:36.002Z,99
2022-10-31T06:40:35.977Z,99
2022-10-31T06:41:35.986Z,99
2022-10-31T06:42:35.981Z,99
2022-10-31T06:43:36.018Z,99
2022-10-31T06:44:36.016Z,99
2022-10-31T06:45:35.993Z,99
2022-10-31T06:46:35.977Z,99
2022-10-31T06:47:45.847Z,99
2022-10-31T06:48:36.007Z,99
2022-10-31T06:49:36.000Z,99
2022-10-31T06:50:35.988Z,99
2022-10-31T06:51:35.993Z,99
2022-10-31T06:52:36.018Z,99
2022-10-31T06:53:36.005Z,99
2022-10-31T06:54:36.017Z,99
2022-10-31T06:55:35.992Z,99
2022-10-31T06:56:36.002Z,99
2022-10-31T06:57:36.026Z,99
2022-10-31T06:58:36.067Z,99
2022-10-31T06:59:36.029Z,99
2022-10-31T07:00:36.044Z,99
2022-10-31T07:01:36.151Z,99
2022-10-31T07:02:36.015Z,99
2022-10-31T07:03:36.046Z,99
2022-10-31T07:04:36.090Z,99
2022-10-31T07:05:36.036Z,99
2022-10-31T07:06:36.022Z,99
2022-10-31T07:07:36.032Z,99
2022-10-31T07:08:36.062Z,99
2022-10-31T07:09:36.047Z,99
2022-10-31T07:10:39.024Z,99
2022-10-31T07:11:36.028Z,99
2022-10-31T07:12:36.033Z,99
2022-10-31T07:13:36.056Z,99
2022-10-31T07:14:36.041Z,99
2022-10-31T07:15:36.061Z,99
2022-10-31T07:16:36.086Z,99
2022-10-31T07:17:36.061Z,99
2022-10-31T07:18:36.082Z,99
2022-10-31T07:19:36.093Z,99
2022-10-31T07:20:36.068Z,99
2022-10-31T07:21:36.068Z,99
2022-10-31T07:22:36.063Z,99
2022-10-31T07:23:36.078Z,99
2022-10-31T07:24:36.073Z,99
2022-10-31T07:25:36.055Z,99
2022-10-31T07:26:36.065Z,99
2022-10-31T07:27:37.586Z,99
2022-10-31T07:28:36.089Z,99
2022-10-31T07:29:36.086Z,99
2022-10-31T07:30:36.079Z,99
2022-10-31T07:31:36.071Z,99
2022-10-31T07:32:36.085Z,99
2022-10-31T07:33:36.083Z,99
2022-10-31T07:34:36.067Z,99
2022-10-31T07:35:36.134Z,99
2022-10-31T07:36:36.119Z,99
2022-10-31T07:37:36.106Z,99
2022-10-31T07:38:36.265Z,99
2022-10-31T07:39:36.105Z,99
2022-10-31T07:40:36.123Z,99
2022-10-31T07:41:36.114Z,99
2022-10-31T07:42:36.379Z,99
2022-10-31T07:43:36.134Z,99
2022-10-31T07:44:36.117Z,99
2022-10-31T07:45:36.130Z,99
2022-10-31T07:46:36.095Z,99
2022-10-31T07:47:36.113Z,99
2022-10-31T07:48:36.166Z,99
2022-10-31T07:49:36.108Z,99
2022-10-31T07:50:36.092Z,99
2022-10-31T07:51:36.096Z,99
2022-10-31T07:52:36.109Z,99
2022-10-31T07:53:36.129Z,99
2022-10-31T07:54:36.100Z,99
2022-10-31T07:55:36.102Z,99
2022-10-31T07:56:36.153Z,99
2022-10-31T07:57:36.131Z,99
2022-10-31T07:58:36.158Z,99
2022-10-31T07:59:36.127Z,99
2022-10-31T08:00:36.205Z,99
2022-10-31T08:01:36.137Z,99
2022-10-31T08:02:36.161Z,99
2022-10-31T08:03:36.153Z,99
2022-10-31T08:04:36.161Z,99
2022-10-31T08:05:36.143Z,99
2022-10-31T08:06:36.145Z,99
2022-10-31T08:08:37.530Z,99
2022-10-31T08:09:36.163Z,99
2022-10-31T08:10:36.135Z,99
2022-10-31T08:11:36.187Z,99
2022-10-31T08:12:36.176Z,99
2022-10-31T08:13:36.165Z,99
2022-10-31T08:14:36.167Z,99
2022-10-31T08:15:36.170Z,99
2022-10-31T08:16:36.175Z,99
2022-10-31T08:17:36.194Z,99
2022-10-31T08:18:36.188Z,99
2022-10-31T08:19:36.289Z,99
2022-10-31T08:20:36.215Z,99
2022-10-31T08:21:36.190Z,99
2022-10-31T08:22:39.776Z,99
2022-10-31T08:23:36.203Z,99
2022-10-31T08:24:36.236Z,99
2022-10-31T08:25:37.428Z,99
2022-10-31T08:26:36.212Z,99
2022-10-31T08:27:36.200Z,99
2022-10-31T08:28:36.235Z,99
2022-10-31T08:29:36.249Z,99
2022-10-31T08:30:36.225Z,99
2022-10-31T08:31:38.929Z,99
2022-10-31T08:32:36.221Z,99
2022-10-31T08:33:36.236Z,99
2022-10-31T08:34:36.252Z,99
2022-10-31T08:35:36.247Z,99
2022-10-31T08:36:36.277Z,99
2022-10-31T08:37:36.250Z,99
2022-10-31T08:38:36.254Z,99
2022-10-31T08:39:36.248Z,99
2022-10-31T08:40:36.271Z,99
2022-10-31T08:41:36.277Z,99
2022-10-31T08:42:36.296Z,99
2022-10-31T08:43:36.269Z,99
2022-10-31T08:44:36.271Z,99
2022-10-31T08:45:36.253Z,99
2022-10-31T08:46:36.268Z,99
2022-10-31T08:47:36.265Z,99
2022-10-31T08:48:36.302Z,99
2022-10-31T08:49:36.262Z,99
2022-10-31T08:50:36.295Z,99
2022-10-31T08:51:36.295Z,99
2022-10-31T08:52:59.180Z,99
2022-10-31T08:53:36.275Z,99
2022-10-31T08:54:36.280Z,99
2022-10-31T08:55:36.302Z,99
2022-10-31T08:56:36.300Z,99
2022-10-31T08:57:36.291Z,99
2022-10-31T08:58:40.006Z,99
2022-10-31T08:59:36.418Z,99
2022-10-31T09:00:36.432Z,99
2022-10-31T09:01:36.362Z,99
2022-10-31T09:02:36.299Z,99
2022-10-31T09:03:36.306Z,99
2022-10-31T09:04:36.294Z,99
2022-10-31T09:05:36.334Z,99
2022-10-31T09:06:37.992Z,99
2022-10-31T09:07:36.289Z,99
2022-10-31T09:08:36.368Z,99
2022-10-31T09:09:36.312Z,99
2022-10-31T09:10:36.329Z,99
2022-10-31T09:11:36.339Z,99
2022-10-31T09:12:36.321Z,99
2022-10-31T09:13:40.304Z,99
2022-10-31T09:14:36.337Z,99
2022-10-31T09:15:36.344Z,99
2022-10-31T09:16:36.338Z,99
2022-10-31T09:17:36.363Z,99
2022-10-31T09:18:36.361Z,99
2022-10-31T09:19:36.371Z,99
2022-10-31T09:20:36.380Z,99
2022-10-31T09:21:36.363Z,99
2022-10-31T09:22:36.352Z,99
2022-10-31T09:23:36.350Z,99
2022-10-31T09:24:36.419Z,99
2022-10-31T09:25:36.376Z,99
2022-10-31T09:26:36.374Z,99
2022-10-31T09:27:36.366Z,99
2022-10-31T09:28:36.389Z,99
2022-10-31T09:29:36.349Z,98
2022-10-31T09:30:36.374Z,98
2022-10-31T09:31:38.653Z,98
2022-10-31T09:32:36.378Z,98
2022-10-31T09:33:36.375Z,99
2022-10-31T09:34:36.390Z,99
2022-10-31T09:35:36.418Z,98
2022-10-31T09:36:36.461Z,98
2022-10-31T09:37:36.400Z,98
2022-10-31T09:38:36.405Z,98
2022-10-31T09:39:36.398Z,98
2022-10-31T09:40:36.431Z,98
2022-10-31T09:41:36.405Z,98
2022-10-31T09:42:36.410Z,98
2022-10-31T09:43:36.457Z,98
2022-10-31T09:44:36.410Z,98
2022-10-31T09:45:36.414Z,98
2022-10-31T09:46:36.442Z,98
2022-10-31T09:47:36.432Z,98
2022-10-31T09:48:36.429Z,98
2022-10-31T09:49:36.482Z,98
2022-10-31T09:50:36.436Z,98
2022-10-31T09:51:36.429Z,98
2022-10-31T09:52:36.454Z,98
2022-10-31T09:53:36.442Z,98
2022-10-31T09:54:36.448Z,97
2022-10-31T09:55:36.435Z,97
2022-10-31T09:56:36.491Z,97
2022-10-31T09:57:36.444Z,97
2022-10-31T09:58:38.160Z,97
2022-10-31T09:59:36.456Z,97
2022-10-31T10:00:36.507Z,97
2022-10-31T10:01:36.540Z,96
2022-10-31T10:02:36.489Z,96
2022-10-31T10:03:36.462Z,96
2022-10-31T10:04:36.456Z,96
2022-10-31T10:05:36.459Z,96
2022-10-31T10:06:36.440Z,96
2022-10-31T10:07:36.455Z,96
2022-10-31T10:08:36.460Z,96
2022-10-31T10:09:36.474Z,96
2022-10-31T10:10:36.450Z,95
2022-10-31T10:11:36.461Z,95
2022-10-31T10:12:36.489Z,95
2022-10-31T10:13:36.484Z,95
2022-10-31T10:14:36.470Z,95
2022-10-31T10:15:36.847Z,95
2022-10-31T10:16:36.484Z,95
2022-10-31T10:17:36.491Z,95
2022-10-31T10:18:36.496Z,95
2022-10-31T10:19:36.499Z,95
2022-10-31T10:20:36.481Z,95
2022-10-31T10:21:36.477Z,95
2022-10-31T10:22:36.483Z,95
2022-10-31T10:23:36.498Z,95
2022-10-31T10:24:36.498Z,95
2022-10-31T10:25:36.492Z,95
2022-10-31T10:26:36.524Z,95
2022-10-31T10:27:36.493Z,95
2022-10-31T10:28:36.534Z,94
2022-10-31T10:29:36.499Z,94
2022-10-31T10:30:36.510Z,94
2022-10-31T10:31:36.557Z,94
2022-10-31T10:32:36.526Z,94
2022-10-31T10:33:36.526Z,94
2022-10-31T10:34:36.515Z,94
2022-10-31T10:35:36.528Z,94
2022-10-31T10:36:36.536Z,94
2022-10-31T10:37:36.701Z,94
2022-10-31T10:38:36.552Z,93
2022-10-31T10:39:36.554Z,93
2022-10-31T10:40:36.562Z,93
2022-10-31T10:41:36.557Z,93
2022-10-31T10:42:36.555Z,93
2022-10-31T10:43:36.629Z,93
2022-10-31T10:44:36.586Z,93
2022-10-31T10:45:36.574Z,93
2022-10-31T10:46:36.557Z,93
2022-10-31T10:47:36.568Z,93
2022-10-31T10:48:36.563Z,93
2022-10-31T10:49:36.543Z,93
2022-10-31T10:50:36.563Z,93
2022-10-31T10:52:43.322Z,93
2022-10-31T10:53:36.606Z,93
2022-10-31T10:54:36.565Z,93
2022-10-31T10:55:36.601Z,93
2022-10-31T10:56:36.590Z,93
2022-10-31T10:57:36.614Z,93
2022-10-31T10:58:36.598Z,93
2022-10-31T10:59:36.635Z,93
2022-10-31T11:00:36.714Z,93
2022-10-31T11:01:36.597Z,93
2022-10-31T11:02:36.654Z,92
2022-10-31T11:03:36.610Z,93
2022-10-31T11:04:36.653Z,93
2022-10-31T11:05:36.656Z,93
2022-10-31T11:06:36.605Z,93
2022-10-31T11:07:36.641Z,92
2022-10-31T11:08:36.616Z,92
2022-10-31T11:09:36.620Z,92
2022-10-31T11:10:36.615Z,92
2022-10-31T11:11:36.626Z,92
2022-10-31T11:12:36.626Z,92
2022-10-31T11:13:36.620Z,92
2022-10-31T11:14:36.616Z,92
2022-10-31T11:15:36.664Z,92
2022-10-31T11:16:40.596Z,91
2022-10-31T11:17:36.670Z,91
2022-10-31T11:18:36.628Z,92
2022-10-31T11:19:36.636Z,92
2022-10-31T11:20:36.634Z,91
2022-10-31T11:21:36.622Z,91
2022-10-31T11:22:36.655Z,91
2022-10-31T11:23:36.637Z,91
2022-10-31T11:24:36.674Z,91
2022-10-31T11:25:36.640Z,91
2022-10-31T11:26:36.646Z,91
2022-10-31T11:27:36.666Z,91
2022-10-31T11:28:36.672Z,91
2022-10-31T11:29:36.631Z,91
2022-10-31T11:30:36.670Z,90
2022-10-31T11:31:36.677Z,91
2022-10-31T11:32:36.681Z,91
2022-10-31T11:33:36.633Z,90
2022-10-31T11:34:36.665Z,91
2022-10-31T11:36:36.645Z,91
2022-10-31T11:37:36.692Z,91
2022-10-31T11:38:36.687Z,91
2022-10-31T11:39:36.672Z,90
2022-10-31T11:40:36.672Z,91
2022-10-31T11:41:36.677Z,90
2022-10-31T11:42:36.720Z,90
2022-10-31T11:43:36.694Z,91
2022-10-31T11:44:36.708Z,91
2022-10-31T11:45:36.710Z,90
2022-10-31T11:46:36.715Z,90
2022-10-31T11:47:36.727Z,90
2022-10-31T11:48:36.721Z,90
2022-10-31T11:49:36.716Z,90
2022-10-31T11:50:36.712Z,90
2022-10-31T11:51:36.697Z,90
2022-10-31T11:52:36.710Z,90
2022-10-31T11:53:36.720Z,90
2022-10-31T11:54:36.723Z,90
2022-10-31T11:55:36.733Z,90
2022-10-31T11:56:36.731Z,90
2022-10-31T11:57:36.728Z,90
2022-10-31T11:58:36.729Z,90
2022-10-31T11:59:36.727Z,89
2022-10-31T12:00:36.718Z,89
2022-10-31T12:01:39.710Z,90
2022-10-31T12:02:36.801Z,90
2022-10-31T12:03:36.731Z,90
2022-10-31T12:04:36.798Z,90
2022-10-31T12:05:36.745Z,90
2022-10-31T12:06:36.757Z,89
2022-10-31T12:07:36.783Z,89
2022-10-31T12:08:36.762Z,89
2022-10-31T12:09:36.756Z,89
2022-10-31T12:10:36.755Z,89
2022-10-31T12:11:36.756Z,89
2022-10-31T12:12:36.778Z,89
2022-10-31T12:13:36.756Z,89
2022-10-31T12:14:36.759Z,89
2022-10-31T12:15:36.769Z,89
2022-10-31T12:16:36.769Z,90
2022-10-31T12:17:36.788Z,89
2022-10-31T12:18:36.767Z,90
2022-10-31T12:19:36.766Z,90
2022-10-31T12:20:36.800Z,90
2022-10-31T12:21:36.794Z,89
2022-10-31T12:22:36.789Z,90
2022-10-31T12:23:36.823Z,90
2022-10-31T12:24:36.799Z,89
2022-10-31T12:25:36.793Z,89
2022-10-31T12:26:36.783Z,89
2022-10-31T12:27:36.803Z,90
2022-10-31T12:28:38.907Z,90
2022-10-31T12:29:36.785Z,90
2022-10-31T12:30:36.803Z,89
2022-10-31T12:31:36.806Z,89
2022-10-31T12:32:36.801Z,89
2022-10-31T12:33:36.807Z,90
2022-10-31T12:34:36.819Z,89
2022-10-31T12:35:36.878Z,89
2022-10-31T12:36:36.845Z,90
2022-10-31T12:37:36.856Z,89
2022-10-31T12:38:36.820Z,89
2022-10-31T12:39:36.842Z,89
2022-10-31T12:40:36.838Z,89
2022-10-31T12:41:36.852Z,89
2022-10-31T12:42:36.839Z,89
2022-10-31T12:43:36.825Z,89
2022-10-31T12:44:36.856Z,89
2022-10-31T12:45:36.859Z,89
2022-10-31T12:46:36.891Z,89
2022-10-31T12:47:36.894Z,89
2022-10-31T12:48:36.858Z,89
2022-10-31T12:49:36.881Z,89
2022-10-31T12:50:36.871Z,89
2022-10-31T12:51:36.887Z,89
2022-10-31T12:52:36.906Z,89
2022-10-31T12:53:36.885Z,89
2022-10-31T12:54:36.877Z,89
2022-10-31T12:55:36.888Z,89
2022-10-31T12:56:36.896Z,88
2022-10-31T12:57:36.905Z,88
2022-10-31T12:58:36.903Z,89
2022-10-31T12:59:36.898Z,88
2022-10-31T13:00:36.933Z,88
2022-10-31T13:01:37.049Z,88
2022-10-31T13:02:36.916Z,88
2022-10-31T13:03:36.913Z,88
2022-10-31T13:04:36.914Z,88
2022-10-31T13:05:36.939Z,88
2022-10-31T13:06:39.560Z,88
2022-10-31T13:07:36.943Z,89
2022-10-31T13:08:36.976Z,89
2022-10-31T13:09:36.937Z,89
2022-10-31T13:10:36.940Z,89
2022-10-31T13:11:36.932Z,89
2022-10-31T13:12:37.584Z,89
2022-10-31T13:13:36.955Z,89
2022-10-31T13:14:36.955Z,89
2022-10-31T13:15:36.949Z,89
2022-10-31T13:16:36.959Z,88
2022-10-31T13:17:36.959Z,88
2022-10-31T13:18:36.951Z,88
2022-10-31T13:19:36.962Z,88
2022-10-31T13:20:36.957Z,88
2022-10-31T13:21:36.969Z,88
2022-10-31T13:22:36.976Z,88
2022-10-31T13:23:50.155Z,89
2022-10-31T13:24:37.027Z,89
2022-10-31T13:25:36.991Z,88
2022-10-31T13:26:37.031Z,88
2022-10-31T13:27:37.036Z,88
2022-10-31T13:28:37.090Z,88
2022-10-31T13:29:37.010Z,88
2022-10-31T13:30:36.994Z,88
2022-10-31T13:31:37.020Z,88
2022-10-31T13:32:37.017Z,88
2022-10-31T13:33:37.004Z,88
2022-10-31T13:34:37.002Z,88
2022-10-31T13:35:37.019Z,88
2022-10-31T13:36:37.007Z,88
2022-10-31T13:37:37.017Z,89
2022-10-31T13:38:37.011Z,88
2022-10-31T13:39:37.020Z,88
2022-10-31T13:40:37.081Z,88
2022-10-31T13:41:37.039Z,89
2022-10-31T13:42:37.084Z,88
2022-10-31T13:43:37.040Z,88
2022-10-31T13:44:38.483Z,88
2022-10-31T13:45:37.070Z,88
2022-10-31T13:46:37.113Z,88
2022-10-31T13:47:37.074Z,87
2022-10-31T13:48:37.059Z,88
2022-10-31T13:49:37.053Z,87
2022-10-31T13:50:37.072Z,87
2022-10-31T13:51:37.054Z,87
2022-10-31T13:52:37.059Z,86
2022-10-31T13:53:37.051Z,87
2022-10-31T13:54:37.080Z,86
2022-10-31T13:55:37.095Z,86
2022-10-31T13:56:37.090Z,87
2022-10-31T13:57:37.109Z,87
2022-10-31T13:58:37.102Z,87
2022-10-31T13:59:37.080Z,87
2022-10-31T14:00:37.110Z,87
2022-10-31T14:01:37.210Z,87
2022-10-31T14:02:37.088Z,87
2022-10-31T14:04:03.573Z,87
2022-10-31T14:04:37.160Z,87
2022-10-31T14:05:37.105Z,87
2022-10-31T14:06:37.118Z,87
2022-10-31T14:07:37.100Z,87
2022-10-31T14:08:37.089Z,87
2022-10-31T14:09:37.101Z,87
2022-10-31T14:10:37.194Z,88
2022-10-31T14:11:37.374Z,88
2022-10-31T14:12:37.145Z,88
2022-10-31T14:13:37.124Z,88
2022-10-31T14:14:37.131Z,87
2022-10-31T14:15:37.140Z,88
2022-10-31T14:16:37.141Z,88
2022-10-31T14:17:37.165Z,88
2022-10-31T14:18:37.131Z,88